Terminal Aerodrome Forecast
Issued by NWS Pittsburgh, PA

Home | Current Version | Previous Version | Text Only | Print | Product List | Glossary On
Versions: 1 2 3 4 5 6 7 8 9 10 11 12 13 14 15 16 17 18 19 20 21 22 23 24 25 26 27 28 29 30
819
FTUS41 KPBZ 221735
TAFPIT
TAF
KPIT 221735Z 2218/2324 22015G25KT P6SM VCTS BKN035CB BKN100
      TEMPO 2218/2222 3SM -TSRA BR OVC020CB
     FM222200 25010G20KT P6SM -SHRA VCTS BKN035CB BKN090
     FM230100 27008KT P6SM BKN035
     FM230500 31006KT P6SM SCT045
     FM230900 VRB03KT P6SM FEW150
     FM231800 30008KT P6SM BKN050=

USA.gov is the U.S. government's official web portal to all federal, state and local government web resources and services.